Time;durP1;ratioP1;P1;durP2;ratioP2;P2;SDS_P1;SDS_P2;PMS_P1;PMS_P2;Temp;Humidity;BMP_temperature;BMP_pressure;BME280_temperature;BME280_humidity;BME280_pressure;Samples;Min_cycle;Max_cycle;Signal;HPM_P1;HPM_P2
2022/03/23 00:01:54;;;;;;;64.75;37.50;;;11.40;95.20;;;;;;5119961;27;20049;-76
2022/03/23 00:04:20;;;;;;;65.80;36.42;;;11.40;95.30;;;;;;5086596;27;20370;-76
2022/03/23 00:06:46;;;;;;;64.82;37.33;;;11.30;95.40;;;;;;5120330;27;20137;-76
2022/03/23 00:09:14;;;;;;;64.88;36.20;;;11.20;95.40;;;;;;5119788;27;20493;-76
2022/03/23 00:11:40;;;;;;;69.10;37.55;;;11.20;95.30;;;;;;5104384;27;20137;-75
2022/03/23 00:14:06;;;;;;;67.20;37.08;;;11.20;95.30;;;;;;5137111;27;20106;-76
2022/03/23 00:16:36;;;;;;;71.53;37.53;;;11.00;95.30;;;;;;5137438;27;20168;-76
2022/03/23 00:19:03;;;;;;;65.50;37.05;;;11.00;95.50;;;;;;5103313;27;20102;-76
2022/03/23 00:21:28;;;;;;;65.60;35.67;;;11.00;95.60;;;;;;5103213;27;20495;-76
2022/03/23 00:23:54;;;;;;;67.82;37.53;;;11.00;95.60;;;;;;5103126;27;20120;-76
2022/03/23 00:26:20;;;;;;;70.97;38.72;;;11.00;95.70;;;;;;5137265;27;20046;-76
2022/03/23 00:28:46;;;;;;;67.47;37.38;;;11.10;95.70;;;;;;5086467;27;20049;-76
2022/03/23 00:31:12;;;;;;;69.32;37.20;;;11.00;95.40;;;;;;5119680;27;20116;-76
2022/03/23 00:33:37;;;;;;;74.72;39.10;;;10.90;95.50;;;;;;5137510;27;20042;-77
2022/03/23 00:36:06;;;;;;;68.50;37.78;;;10.90;95.60;;;;;;5136694;27;20431;-76
2022/03/23 00:38:32;;;;;;;71.60;39.65;;;10.90;95.70;;;;;;5136907;27;20121;-76
2022/03/23 00:40:58;;;;;;;68.00;37.35;;;10.90;95.50;;;;;;5119668;27;20130;-76
2022/03/23 00:43:23;;;;;;;62.42;36.13;;;10.80;95.50;;;;;;5119716;27;20100;-76
2022/03/23 00:45:49;;;;;;;66.50;36.45;;;10.70;95.50;;;;;;5120215;27;20047;-76
2022/03/23 00:48:15;;;;;;;65.93;36.53;;;10.60;95.70;;;;;;5120486;27;20046;-76
2022/03/23 00:50:40;;;;;;;64.65;35.97;;;10.60;95.60;;;;;;5124129;27;20050;-77
2022/03/23 00:53:06;;;;;;;69.50;37.13;;;10.60;95.70;;;;;;5123967;27;20050;-76
2022/03/23 00:55:32;;;;;;;66.90;38.50;;;10.70;95.70;;;;;;5123800;27;20449;-76
2022/03/23 00:57:58;;;;;;;65.40;37.92;;;10.70;95.60;;;;;;5141075;27;20129;-76
2022/03/23 01:00:24;;;;;;;68.90;37.35;;;10.70;95.40;;;;;;5140180;27;20047;-77
2022/03/23 01:02:50;;;;;;;69.40;37.80;;;10.80;95.50;;;;;;5141087;27;20035;-77
2022/03/23 01:05:16;;;;;;;68.88;37.10;;;10.80;95.60;;;;;;5124497;27;20087;-76
2022/03/23 01:07:42;;;;;;;65.68;35.35;;;10.70;95.30;;;;;;5123665;27;20086;-76
2022/03/23 01:10:11;;;;;;;68.93;38.10;;;10.70;95.40;;;;;;5123514;27;20405;-76
2022/03/23 01:12:42;;;;;;;68.13;36.53;;;10.70;95.40;;;;;;5140685;27;20190;-76
2022/03/23 01:15:09;;;;;;;68.10;37.80;;;10.60;95.40;;;;;;5123292;27;20042;-76
2022/03/23 01:17:36;;;;;;;67.10;36.63;;;10.70;95.70;;;;;;5123644;27;20057;-76
2022/03/23 01:20:04;;;;;;;61.75;35.58;;;10.70;95.40;;;;;;5123381;27;20039;-76
2022/03/23 01:22:30;;;;;;;67.63;35.35;;;10.60;95.30;;;;;;5123427;27;20122;-76
2022/03/23 01:24:56;;;;;;;66.35;36.05;;;10.60;95.40;;;;;;5140627;27;20505;-76
2022/03/23 01:27:21;;;;;;;65.50;36.92;;;10.50;95.50;;;;;;5140566;27;20035;-76
2022/03/23 01:29:47;;;;;;;64.22;37.15;;;10.50;95.40;;;;;;5139768;27;20392;-77
2022/03/23 01:32:13;;;;;;;69.28;36.78;;;10.30;95.50;;;;;;5140665;27;20492;-76
2022/03/23 01:34:39;;;;;;;70.70;37.65;;;10.30;95.40;;;;;;5106569;27;20150;-76
2022/03/23 01:37:05;;;;;;;68.40;34.88;;;10.30;95.60;;;;;;5123324;27;20070;-76
2022/03/23 01:39:31;;;;;;;70.28;37.75;;;10.30;95.40;;;;;;5106528;27;20046;-76
2022/03/23 01:41:58;;;;;;;68.35;37.25;;;10.20;95.50;;;;;;5140771;27;20380;-76
2022/03/23 01:44:25;;;;;;;62.70;35.25;;;10.10;95.60;;;;;;5106227;27;20390;-76
2022/03/23 01:47:14;;;;;;;66.18;35.85;;;10.10;95.70;;;;;;5139724;27;20043;-77
2022/03/23 01:49:48;;;;;;;66.15;36.35;;;10.00;95.70;;;;;;5140370;27;20111;-77
2022/03/23 01:52:16;;;;;;;66.97;35.33;;;10.00;95.80;;;;;;5123364;27;20065;-76
2022/03/23 01:54:43;;;;;;;63.55;35.80;;;10.10;95.80;;;;;;5123102;27;20083;-76
2022/03/23 01:57:10;;;;;;;68.65;36.38;;;10.20;95.90;;;;;;5139944;27;20389;-76
2022/03/23 01:59:36;;;;;;;68.93;37.28;;;10.10;95.60;;;;;;5139353;27;20068;-77
2022/03/23 02:02:04;;;;;;;60.97;35.22;;;10.00;95.50;;;;;;5139862;27;20042;-77
2022/03/23 02:04:29;;;;;;;63.13;34.97;;;10.00;95.70;;;;;;5139688;27;20489;-76
2022/03/23 02:06:55;;;;;;;61.03;33.75;;;10.00;95.60;;;;;;5105679;27;20049;-76
2022/03/23 02:09:21;;;;;;;63.45;34.15;;;9.90;95.50;;;;;;5088388;27;20062;-76
2022/03/23 02:11:49;;;;;;;66.32;36.47;;;9.90;95.50;;;;;;5139660;27;20097;-76
2022/03/23 02:14:15;;;;;;;62.47;35.38;;;9.90;95.70;;;;;;5122457;27;20050;-77
2022/03/23 02:16:52;;;;;;;62.63;34.67;;;10.00;95.50;;;;;;5122476;27;20135;-77
2022/03/23 02:19:19;;;;;;;65.03;35.63;;;9.90;95.40;;;;;;5122614;27;20054;-76
2022/03/23 02:21:46;;;;;;;64.13;34.92;;;9.80;95.30;;;;;;5139129;27;20042;-76
2022/03/23 02:24:14;;;;;;;58.08;33.67;;;9.80;95.40;;;;;;5139393;27;20086;-77
2022/03/23 02:26:41;;;;;;;65.80;36.45;;;9.70;95.50;;;;;;5139519;27;20043;-76
2022/03/23 02:29:07;;;;;;;67.28;36.38;;;9.70;95.50;;;;;;5122249;27;20138;-76
2022/03/23 02:31:34;;;;;;;71.53;35.35;;;9.70;95.40;;;;;;5138970;27;20046;-77
2022/03/23 02:34:00;;;;;;;64.10;33.53;;;9.60;95.50;;;;;;5139323;27;20038;-76
2022/03/23 02:36:26;;;;;;;63.80;34.45;;;9.60;95.60;;;;;;5122009;27;20057;-77
2022/03/23 02:38:52;;;;;;;68.45;36.75;;;9.60;95.60;;;;;;5122076;27;20043;-77
2022/03/23 02:41:18;;;;;;;75.35;40.42;;;9.50;95.50;;;;;;5121734;27;20074;-76
2022/03/23 02:43:44;;;;;;;63.65;34.97;;;9.60;95.80;;;;;;5121856;27;20047;-76
2022/03/23 02:46:18;;;;;;;73.68;37.58;;;9.50;95.50;;;;;;5121621;27;20493;-76
2022/03/23 02:48:44;;;;;;;68.70;36.45;;;9.60;95.70;;;;;;5138953;27;20081;-76
2022/03/23 02:51:10;;;;;;;66.78;35.83;;;9.60;95.60;;;;;;5104815;27;20046;-76
2022/03/23 03:02:39;;;;;;;60.35;34.42;;;9.40;95.60;;;;;;5056065;28;20056;-76
2022/03/23 03:05:07;;;;;;;65.72;34.70;;;9.40;95.60;;;;;;5123538;27;20054;-76
2022/03/23 03:10:19;;;;;;;65.50;34.40;;;9.20;95.60;;;;;;5137882;27;20618;-77
2022/03/23 03:12:46;;;;;;;69.93;37.50;;;9.10;95.50;;;;;;5138433;27;20444;-76
2022/03/23 03:15:13;;;;;;;63.67;34.20;;;9.10;95.80;;;;;;5121560;27;20069;-76
2022/03/23 03:17:39;;;;;;;65.38;35.00;;;9.10;95.70;;;;;;5104197;27;20046;-76
2022/03/23 03:20:06;;;;;;;64.03;34.30;;;9.10;95.80;;;;;;5121245;27;20046;-76
2022/03/23 03:22:39;;;;;;;61.28;34.30;;;9.10;95.70;;;;;;5104263;27;20042;-76
2022/03/23 03:25:05;;;;;;;65.40;35.28;;;9.00;95.70;;;;;;5138212;27;20039;-77
2022/03/23 03:27:35;;;;;;;66.50;34.90;;;9.10;95.80;;;;;;5121284;27;20057;-76
2022/03/23 03:30:06;;;;;;;66.63;34.92;;;9.10;95.80;;;;;;5120469;27;20389;-77
2022/03/23 03:32:32;;;;;;;63.92;32.55;;;9.00;95.50;;;;;;5138070;27;20382;-77
2022/03/23 03:34:58;;;;;;;63.45;32.63;;;9.00;95.70;;;;;;5121723;27;20050;-77
2022/03/23 03:37:24;;;;;;;60.90;33.28;;;8.90;95.60;;;;;;5120933;27;20038;-76
2022/03/23 03:39:49;;;;;;;74.15;33.78;;;8.90;95.70;;;;;;5120692;27;20129;-76
2022/03/23 03:42:15;;;;;;;63.30;33.90;;;9.00;95.70;;;;;;5104031;27;20134;-76
2022/03/23 03:44:41;;;;;;;63.55;34.85;;;9.00;95.70;;;;;;5121238;27;20030;-77
2022/03/23 03:47:07;;;;;;;60.00;33.15;;;8.90;95.60;;;;;;5137604;27;20050;-76
2022/03/23 03:49:33;;;;;;;63.20;35.17;;;8.90;95.60;;;;;;5137824;27;20042;-76
2022/03/23 03:51:59;;;;;;;62.10;33.88;;;8.80;95.60;;;;;;5086809;27;20034;-76
2022/03/23 03:54:24;;;;;;;61.45;32.42;;;8.80;95.70;;;;;;5103332;27;20099;-77
2022/03/23 03:56:50;;;;;;;59.78;33.28;;;8.70;95.70;;;;;;5120715;27;20046;-76
2022/03/23 03:59:16;;;;;;;66.57;35.03;;;8.60;95.90;;;;;;5137337;27;20389;-77
2022/03/23 04:01:42;;;;;;;65.18;35.00;;;8.60;96.00;;;;;;5102834;27;20042;-77
2022/03/23 04:04:07;;;;;;;61.92;33.45;;;8.50;95.90;;;;;;5137785;27;20141;-76
2022/03/23 04:06:33;;;;;;;65.05;33.63;;;8.50;96.00;;;;;;5120360;27;20046;-76
2022/03/23 04:08:59;;;;;;;64.03;33.17;;;8.60;96.00;;;;;;5136994;27;20034;-77
2022/03/23 04:11:24;;;;;;;67.35;35.38;;;8.60;96.00;;;;;;5102989;27;20086;-76
2022/03/23 04:13:50;;;;;;;63.60;34.05;;;8.60;95.90;;;;;;5120251;27;20078;-76
2022/03/23 04:16:16;;;;;;;63.03;33.00;;;8.60;96.00;;;;;;5137354;27;20053;-76
2022/03/23 04:18:42;;;;;;;64.13;32.80;;;8.60;95.90;;;;;;5121478;27;20109;-77
2022/03/23 04:21:07;;;;;;;59.33;32.17;;;8.50;95.80;;;;;;5098335;27;20035;-77
2022/03/23 04:23:34;;;;;;;64.55;31.98;;;8.30;95.90;;;;;;5099965;28;20478;-76
2022/03/23 04:25:59;;;;;;;60.00;30.98;;;8.20;95.90;;;;;;5116671;28;20047;-76
2022/03/23 04:28:25;;;;;;;57.80;31.00;;;8.10;96.10;;;;;;5099684;28;20047;-76
2022/03/23 04:30:51;;;;;;;58.55;32.17;;;8.20;96.20;;;;;;5099180;28;20066;-77
2022/03/23 04:33:17;;;;;;;57.92;30.98;;;8.20;96.20;;;;;;5099918;28;20123;-76
2022/03/23 04:35:42;;;;;;;58.20;31.05;;;8.20;96.10;;;;;;5116551;28;20595;-77
2022/03/23 04:38:08;;;;;;;61.42;30.70;;;8.30;96.00;;;;;;5082980;28;20047;-77
2022/03/23 04:40:34;;;;;;;60.40;32.67;;;8.20;96.00;;;;;;5099551;28;20549;-76
2022/03/23 04:43:00;;;;;;;60.38;31.15;;;8.10;96.00;;;;;;5083008;28;20107;-76
2022/03/23 04:45:25;;;;;;;61.67;32.00;;;8.10;96.10;;;;;;5116421;28;20035;-76
2022/03/23 04:47:52;;;;;;;61.53;32.50;;;8.10;96.10;;;;;;5099538;28;20395;-77
2022/03/23 04:50:18;;;;;;;59.90;32.55;;;8.10;96.10;;;;;;5116396;28;20047;-76
2022/03/23 04:52:46;;;;;;;59.78;32.05;;;8.00;96.10;;;;;;5099326;28;20051;-77
2022/03/23 04:55:13;;;;;;;63.97;31.60;;;8.00;96.20;;;;;;5099820;28;20043;-76
2022/03/23 04:57:40;;;;;;;61.63;31.67;;;8.00;96.20;;;;;;5116346;28;20043;-76
2022/03/23 05:00:11;;;;;;;60.03;31.60;;;7.90;96.20;;;;;;5115753;28;20046;-77
2022/03/23 05:02:38;;;;;;;58.65;32.50;;;8.00;96.40;;;;;;5099457;28;20090;-76
2022/03/23 05:05:09;;;;;;;64.28;34.28;;;8.00;96.40;;;;;;5116273;28;20445;-76
2022/03/23 05:07:35;;;;;;;61.00;32.10;;;8.00;96.50;;;;;;5116300;28;20043;-76
2022/03/23 05:10:02;;;;;;;61.95;32.65;;;8.00;96.40;;;;;;5115976;28;20062;-77
2022/03/23 05:12:28;;;;;;;64.40;34.50;;;8.00;96.50;;;;;;5116324;28;20137;-76
2022/03/23 05:14:54;;;;;;;59.08;30.88;;;8.00;96.50;;;;;;5116170;28;20367;-76
2022/03/23 05:17:20;;;;;;;63.03;33.38;;;8.00;96.50;;;;;;5099253;28;20098;-76
2022/03/23 05:19:46;;;;;;;56.60;31.60;;;8.00;96.30;;;;;;5116121;28;20043;-76
2022/03/23 05:22:12;;;;;;;60.40;31.60;;;8.10;96.40;;;;;;5099089;28;20051;-76
2022/03/23 05:24:39;;;;;;;56.17;31.42;;;8.00;96.30;;;;;;5115839;28;20054;-76
2022/03/23 05:27:06;;;;;;;56.35;30.55;;;8.00;96.30;;;;;;5099676;28;20043;-77
2022/03/23 05:29:32;;;;;;;58.25;31.38;;;8.00;96.20;;;;;;5116373;28;20047;-76
2022/03/23 05:31:59;;;;;;;58.28;31.70;;;7.90;96.10;;;;;;5081980;28;20131;-76
2022/03/23 05:34:25;;;;;;;61.58;32.88;;;8.00;96.40;;;;;;5099944;27;20099;-76
2022/03/23 05:36:50;;;;;;;61.47;31.73;;;7.90;96.20;;;;;;5103023;27;20042;-76
2022/03/23 05:39:16;;;;;;;56.63;29.85;;;7.90;96.20;;;;;;5102832;27;20228;-76
2022/03/23 05:41:42;;;;;;;62.85;33.42;;;7.90;96.30;;;;;;5119110;27;20039;-76
2022/03/23 05:44:08;;;;;;;62.20;33.35;;;8.00;96.30;;;;;;5102644;27;20047;-76
2022/03/23 05:46:34;;;;;;;60.20;32.78;;;8.10;96.20;;;;;;5119738;27;20129;-76
2022/03/23 05:48:59;;;;;;;60.30;33.08;;;8.00;96.00;;;;;;5119533;27;20125;-76
2022/03/23 05:51:25;;;;;;;59.50;32.63;;;8.00;96.10;;;;;;5102571;27;20551;-76
2022/03/23 05:53:51;;;;;;;63.97;34.38;;;7.90;96.20;;;;;;5085833;27;20460;-76
2022/03/23 05:56:18;;;;;;;62.13;31.98;;;7.90;96.30;;;;;;5119559;27;20047;-76
2022/03/23 05:58:44;;;;;;;62.38;33.15;;;7.80;96.30;;;;;;5102604;27;20129;-76
2022/03/23 06:01:09;;;;;;;59.22;32.90;;;7.90;96.50;;;;;;5118347;27;20184;-77
2022/03/23 06:03:35;;;;;;;64.22;34.95;;;7.90;96.50;;;;;;5085412;27;20047;-77
2022/03/23 06:06:03;;;;;;;64.22;34.17;;;7.80;96.60;;;;;;5102147;27;20043;-76
2022/03/23 06:08:28;;;;;;;59.67;32.72;;;7.80;96.70;;;;;;5102269;27;20176;-76
2022/03/23 06:10:55;;;;;;;64.22;33.08;;;7.90;96.70;;;;;;5102016;27;20454;-76
2022/03/23 06:13:21;;;;;;;71.10;34.55;;;8.00;96.70;;;;;;5102075;27;20069;-76
2022/03/23 06:15:47;;;;;;;68.50;34.08;;;8.10;96.60;;;;;;5085204;27;20053;-76
2022/03/23 06:18:12;;;;;;;65.90;35.70;;;8.10;96.60;;;;;;5085344;27;20039;-77
2022/03/23 06:20:38;;;;;;;69.22;34.58;;;8.20;96.70;;;;;;5085051;27;20075;-76
2022/03/23 06:23:05;;;;;;;62.17;33.15;;;8.30;96.70;;;;;;5101861;27;20513;-76
2022/03/23 06:25:32;;;;;;;56.35;31.48;;;8.40;96.70;;;;;;5102518;27;20428;-76
2022/03/23 06:27:57;;;;;;;66.45;34.67;;;8.40;96.70;;;;;;5119177;27;20089;-76
2022/03/23 06:30:23;;;;;;;65.03;36.17;;;8.50;96.60;;;;;;5084942;27;20078;-77
2022/03/23 06:32:49;;;;;;;67.30;35.08;;;8.70;96.60;;;;;;5084893;27;20474;-76
2022/03/23 06:35:16;;;;;;;58.25;32.40;;;8.70;96.50;;;;;;5102137;27;20130;-76
2022/03/23 06:37:42;;;;;;;67.10;36.08;;;8.70;96.50;;;;;;5101580;27;20390;-77
2022/03/23 06:40:09;;;;;;;63.88;35.45;;;8.80;96.60;;;;;;5101498;27;20035;-76
2022/03/23 06:42:35;;;;;;;62.28;33.88;;;8.80;96.60;;;;;;5084741;27;20077;-76
2022/03/23 06:45:02;;;;;;;63.80;34.53;;;8.90;96.60;;;;;;5101285;27;20078;-76
2022/03/23 06:47:29;;;;;;;59.58;33.75;;;9.00;96.50;;;;;;5117242;27;20043;-77
2022/03/23 06:49:54;;;;;;;65.07;35.88;;;9.00;96.60;;;;;;5101351;27;20094;-76
2022/03/23 06:52:20;;;;;;;72.10;38.58;;;9.10;96.70;;;;;;5084446;27;20092;-76
2022/03/23 06:54:46;;;;;;;63.47;35.47;;;9.30;96.70;;;;;;5101197;27;20055;-77
2022/03/23 06:57:12;;;;;;;72.40;38.30;;;9.40;96.60;;;;;;5084035;27;20502;-76
2022/03/23 06:59:38;;;;;;;58.53;34.15;;;9.60;96.70;;;;;;5118905;27;20043;-77
2022/03/23 07:02:05;;;;;;;60.65;33.72;;;9.80;96.60;;;;;;5100117;27;20050;-77
2022/03/23 07:04:31;;;;;;;67.15;36.28;;;9.90;96.50;;;;;;5118058;27;20050;-77
2022/03/23 07:06:56;;;;;;;74.13;39.55;;;10.10;96.50;;;;;;5117793;27;20047;-76
2022/03/23 07:09:31;;;;;;;75.80;40.78;;;10.20;96.50;;;;;;5100955;27;20072;-76
2022/03/23 07:12:00;;;;;;;83.88;41.92;;;10.30;96.40;;;;;;5085372;27;20062;-76
2022/03/23 07:14:30;;;;;;;77.45;40.40;;;10.60;96.40;;;;;;5117877;27;20047;-75
2022/03/23 07:16:56;;;;;;;75.13;41.05;;;10.70;96.30;;;;;;5117798;27;20099;-81
2022/03/23 07:19:22;;;;;;;74.20;41.50;;;10.80;96.40;;;;;;5118227;27;20047;-77
2022/03/23 07:21:49;;;;;;;73.75;41.17;;;10.80;96.30;;;;;;5100705;27;20481;-78
2022/03/23 07:24:15;;;;;;;81.72;40.50;;;10.80;96.50;;;;;;5117751;27;20066;-77
2022/03/23 07:26:40;;;;;;;80.57;43.03;;;10.80;96.30;;;;;;5100758;27;20445;-78
2022/03/23 07:29:07;;;;;;;81.63;42.33;;;10.80;96.20;;;;;;5117240;27;20085;-77
2022/03/23 07:31:33;;;;;;;77.22;41.80;;;10.80;96.40;;;;;;5100202;27;20375;-77
2022/03/23 07:33:59;;;;;;;69.40;39.38;;;10.90;96.00;;;;;;5100581;27;20096;-77
2022/03/23 07:36:25;;;;;;;70.55;39.13;;;11.00;95.80;;;;;;5117747;27;20043;-77
2022/03/23 07:38:52;;;;;;;72.90;38.13;;;11.10;95.70;;;;;;5117123;27;20127;-77
2022/03/23 07:41:18;;;;;;;75.70;40.22;;;11.10;95.60;;;;;;5100222;27;20077;-77
2022/03/23 07:43:43;;;;;;;69.13;37.47;;;11.10;95.40;;;;;;5100087;27;20154;-77
2022/03/23 07:46:09;;;;;;;68.95;38.28;;;11.10;95.20;;;;;;5117517;27;20115;-78
2022/03/23 07:48:35;;;;;;;73.30;38.15;;;11.20;95.20;;;;;;5116942;27;20083;-78
2022/03/23 07:51:01;;;;;;;66.63;37.13;;;11.30;95.10;;;;;;5117143;27;20039;-78
2022/03/23 07:53:27;;;;;;;61.83;34.53;;;11.60;95.10;;;;;;5117151;27;20058;-78
2022/03/23 07:55:52;;;;;;;61.60;35.58;;;11.70;94.80;;;;;;5100624;27;20055;-78
2022/03/23 07:58:18;;;;;;;68.40;36.97;;;11.80;94.40;;;;;;5116798;27;20076;-80
2022/03/23 08:00:45;;;;;;;60.05;36.28;;;11.90;94.60;;;;;;5083465;27;20134;-78
2022/03/23 08:03:11;;;;;;;70.00;36.58;;;12.00;94.70;;;;;;5119817;27;20121;-78
2022/03/23 08:05:38;;;;;;;63.60;35.15;;;12.10;94.50;;;;;;5137006;27;20058;-78
2022/03/23 08:08:05;;;;;;;66.68;34.03;;;12.20;94.10;;;;;;5136223;27;20053;-78
2022/03/23 08:10:31;;;;;;;55.17;32.40;;;12.40;94.20;;;;;;5136149;27;20043;-78
2022/03/23 08:12:57;;;;;;;57.72;32.63;;;12.50;93.50;;;;;;5119225;27;20470;-79
2022/03/23 08:15:24;;;;;;;58.28;31.50;;;12.50;93.10;;;;;;5119808;27;20039;-78
2022/03/23 08:17:50;;;;;;;56.03;30.08;;;12.70;92.90;;;;;;5086784;27;20046;-77
2022/03/23 08:23:06;;;;;;;50.55;28.05;;;12.70;92.00;;;;;;5123591;27;20070;-76
2022/03/23 08:25:33;;;;;;;48.92;27.73;;;12.70;91.50;;;;;;5120133;27;20554;-81
2022/03/23 08:28:00;;;;;;;48.13;27.02;;;12.70;91.40;;;;;;5137242;27;20042;-78
2022/03/23 08:30:26;;;;;;;48.10;27.35;;;12.80;90.40;;;;;;5136569;27;20086;-75
2022/03/23 08:32:52;;;;;;;45.55;26.75;;;12.90;91.00;;;;;;5137271;27;20047;-74
2022/03/23 08:35:18;;;;;;;47.25;27.08;;;13.10;91.30;;;;;;5137184;27;20462;-73
2022/03/23 08:37:44;;;;;;;47.22;26.77;;;13.20;90.40;;;;;;5119894;27;20042;-75
2022/03/23 08:40:10;;;;;;;47.53;27.98;;;13.10;90.80;;;;;;5119950;27;20045;-77
2022/03/23 08:42:36;;;;;;;45.20;27.50;;;13.30;90.70;;;;;;5137107;27;20481;-76
2022/03/23 08:45:03;;;;;;;44.65;26.58;;;13.40;90.50;;;;;;5136989;27;20082;-76
2022/03/23 08:47:29;;;;;;;42.78;25.77;;;13.50;90.50;;;;;;5137030;27;20123;-76
2022/03/23 08:49:56;;;;;;;45.85;27.02;;;13.70;90.20;;;;;;5119841;27;20034;-76
2022/03/23 08:52:25;;;;;;;45.58;26.52;;;13.80;89.60;;;;;;5120385;27;20472;-76
2022/03/23 08:54:51;;;;;;;41.28;25.92;;;13.80;89.80;;;;;;5136969;27;20043;-76
2022/03/23 08:57:17;;;;;;;37.45;23.33;;;13.90;88.20;;;;;;5136883;27;20100;-74
2022/03/23 08:59:42;;;;;;;42.28;23.83;;;14.00;86.90;;;;;;5140560;27;20043;-78
2022/03/23 09:02:08;;;;;;;39.08;23.02;;;14.10;86.80;;;;;;5108473;27;20595;-76
2022/03/23 09:04:34;;;;;;;38.38;24.08;;;14.20;86.30;;;;;;5129686;28;20050;-75
2022/03/23 09:06:59;;;;;;;43.15;24.85;;;14.40;86.80;;;;;;5098010;28;20519;-73
2022/03/23 09:09:26;;;;;;;41.47;24.00;;;14.70;88.80;;;;;;5116496;27;20394;-76
2022/03/23 09:11:51;;;;;;;42.17;25.13;;;14.80;87.50;;;;;;5099824;28;20059;-77
2022/03/23 09:14:17;;;;;;;41.53;25.70;;;14.80;88.40;;;;;;5082974;28;20051;-76
2022/03/23 09:16:43;;;;;;;38.75;24.40;;;14.70;87.90;;;;;;5116807;28;20391;-76
2022/03/23 09:19:10;;;;;;;36.70;23.40;;;14.80;86.40;;;;;;5099777;28;20390;-76
2022/03/23 09:21:38;;;;;;;37.85;23.77;;;14.80;86.50;;;;;;5099961;28;20048;-76
2022/03/23 09:24:05;;;;;;;36.78;22.77;;;15.10;87.20;;;;;;5117073;28;20415;-76
2022/03/23 09:26:31;;;;;;;35.90;23.08;;;15.20;87.00;;;;;;5116987;28;20059;-76
2022/03/23 09:28:58;;;;;;;40.22;24.20;;;15.30;85.40;;;;;;5099549;28;20044;-76
2022/03/23 09:31:24;;;;;;;35.78;23.27;;;15.20;84.60;;;;;;5116173;28;20055;-76
2022/03/23 09:33:49;;;;;;;35.95;22.90;;;15.30;85.10;;;;;;5099558;28;20061;-76
2022/03/23 09:37:47;;;;;;;37.63;22.48;;;15.60;85.20;;;;;;5116371;28;20065;-76
2022/03/23 09:39:08;;;;;;;36.40;22.50;;;15.70;84.00;;;;;;5103070;28;20475;-76
2022/03/23 09:41:34;;;;;;;33.70;22.10;;;15.70;81.80;;;;;;5099086;28;20046;-76
2022/03/23 09:44:02;;;;;;;35.20;23.10;;;15.90;81.70;;;;;;5116292;28;20394;-76
2022/03/23 09:46:27;;;;;;;38.78;21.27;;;16.00;81.80;;;;;;5099202;28;20051;-76
2022/03/23 09:48:53;;;;;;;33.10;20.95;;;15.90;80.70;;;;;;5083826;28;20062;-76
2022/03/23 09:51:21;;;;;;;33.22;21.23;;;16.20;82.70;;;;;;5115894;28;20039;-76
2022/03/23 09:53:48;;;;;;;40.20;22.80;;;16.30;80.90;;;;;;5116297;28;20055;-76
2022/03/23 09:56:14;;;;;;;38.47;21.55;;;16.50;81.30;;;;;;5116249;28;20054;-75
2022/03/23 09:58:43;;;;;;;32.67;21.13;;;16.50;80.70;;;;;;5116141;28;20089;-76
2022/03/23 10:01:28;;;;;;;35.05;20.92;;;16.70;80.60;;;;;;5115428;28;20081;-76
2022/03/23 10:04:06;;;;;;;34.05;20.08;;;16.80;80.30;;;;;;5116042;28;20048;-76
2022/03/23 10:07:01;;;;;;;35.05;21.70;;;17.00;77.80;;;;;;5115890;28;20044;-74
2022/03/23 10:09:27;;;;;;;34.65;20.92;;;17.00;76.20;;;;;;5115800;27;20096;-77
2022/03/23 10:12:20;;;;;;;32.20;21.40;;;17.10;77.90;;;;;;5118540;27;20126;-77
2022/03/23 10:15:25;;;;;;;28.08;19.50;;;17.20;77.80;;;;;;5119009;27;20542;-77
2022/03/23 10:18:39;;;;;;;30.08;18.77;;;17.20;75.10;;;;;;5119594;27;20372;-78
2022/03/23 10:21:07;;;;;;;31.98;20.77;;;17.40;74.10;;;;;;5118540;27;20486;-76
2022/03/23 10:23:33;;;;;;;33.22;20.00;;;17.70;75.60;;;;;;5102384;27;20047;-82
2022/03/23 10:26:11;;;;;;;30.90;20.40;;;17.90;73.70;;;;;;5119152;27;20096;-83
2022/03/23 10:28:37;;;;;;;26.55;19.05;;;17.90;74.30;;;;;;5119011;27;20528;-83
2022/03/23 10:31:15;;;;;;;29.27;19.05;;;18.20;73.20;;;;;;5084670;27;20043;-70
2022/03/23 10:33:41;;;;;;;32.75;18.38;;;18.50;74.40;;;;;;5119354;27;20054;-73
2022/03/23 10:36:06;;;;;;;24.30;17.50;;;18.70;72.80;;;;;;5101619;27;20035;-73
2022/03/23 10:38:43;;;;;;;23.20;17.15;;;18.80;70.00;;;;;;5136782;27;20053;-73
2022/03/23 10:41:11;;;;;;;23.90;16.38;;;18.90;68.50;;;;;;5118448;27;20043;-72
2022/03/23 10:43:39;;;;;;;24.75;16.40;;;18.90;67.90;;;;;;5118383;27;20047;-73
2022/03/23 10:46:13;;;;;;;22.27;15.70;;;19.30;67.80;;;;;;5136592;27;20473;-73
2022/03/23 10:49:02;;;;;;;28.75;16.52;;;19.70;68.30;;;;;;5136529;27;20082;-73
2022/03/23 10:51:29;;;;;;;26.52;16.40;;;19.80;67.30;;;;;;5118432;27;20091;-81
2022/03/23 10:53:56;;;;;;;27.67;17.52;;;19.80;66.50;;;;;;5117934;27;20051;-80
2022/03/23 10:56:34;;;;;;;25.15;15.52;;;19.50;64.70;;;;;;5118398;27;20448;-81
2022/03/23 10:59:25;;;;;;;29.33;15.32;;;19.30;66.90;;;;;;5101289;27;20474;-80
2022/03/23 11:01:57;;;;;;;27.73;15.55;;;19.30;66.00;;;;;;5117597;27;20456;-79
2022/03/23 11:04:24;;;;;;;25.27;14.05;;;19.00;64.10;;;;;;5117819;27;20043;-80
2022/03/23 11:06:50;;;;;;;24.80;13.80;;;18.80;62.40;;;;;;5118084;27;20463;-77
2022/03/23 11:18:17;;;;;;;20.20;13.48;;;19.10;63.70;;;;;;5094148;28;20120;-77
2022/03/23 11:20:44;;;;;;;20.98;13.63;;;19.40;65.40;;;;;;5076731;28;20054;-77
2022/03/23 11:23:20;;;;;;;23.77;13.65;;;19.50;62.60;;;;;;5094154;28;20040;-77
2022/03/23 11:25:48;;;;;;;21.52;13.75;;;19.40;61.70;;;;;;5094842;28;20150;-77
2022/03/23 11:28:15;;;;;;;27.15;14.55;;;19.60;63.00;;;;;;5093861;28;20395;-77
2022/03/23 11:30:42;;;;;;;23.17;13.25;;;19.60;61.00;;;;;;5076671;28;20055;-78
2022/03/23 11:33:11;;;;;;;24.35;12.00;;;19.80;63.60;;;;;;5059694;28;20055;-77
2022/03/23 11:35:46;;;;;;;23.05;12.98;;;20.10;61.20;;;;;;5076784;28;20155;-77
2022/03/23 11:38:12;;;;;;;29.63;13.20;;;20.20;63.50;;;;;;5093892;28;20051;-77
2022/03/23 11:40:41;;;;;;;22.58;13.07;;;20.50;63.50;;;;;;5093464;28;20074;-78
2022/03/23 11:43:08;;;;;;;24.48;12.23;;;20.50;62.90;;;;;;5093620;28;20407;-79
2022/03/23 11:45:35;;;;;;;27.30;12.05;;;20.70;63.40;;;;;;5093549;28;20047;-80
2022/03/23 11:48:08;;;;;;;25.15;10.73;;;20.60;62.50;;;;;;5059894;28;20059;-80
2022/03/23 11:51:05;;;;;;;30.98;11.38;;;20.40;61.80;;;;;;5076729;28;20074;-80
2022/03/23 11:53:55;;;;;;;25.85;13.00;;;20.60;63.20;;;;;;5093531;28;20523;-80
2022/03/23 11:56:28;;;;;;;23.52;12.48;;;20.40;59.80;;;;;;5097189;28;20070;-74
2022/03/23 11:58:54;;;;;;;22.75;12.50;;;20.60;60.90;;;;;;5076409;28;20087;-74
2022/03/23 12:01:20;;;;;;;24.33;11.05;;;21.20;60.20;;;;;;5077754;28;20082;-75
2022/03/23 12:04:00;;;;;;;26.33;11.25;;;21.90;60.20;;;;;;5093432;28;20157;-74
2022/03/23 12:06:41;;;;;;;20.75;12.27;;;22.40;58.50;;;;;;5076283;28;20048;-74
2022/03/23 12:09:08;;;;;;;25.83;14.15;;;23.00;59.50;;;;;;5076623;28;20066;-74
2022/03/23 12:11:46;;;;;;;26.55;13.23;;;23.30;58.60;;;;;;5110671;28;20521;-75
2022/03/23 12:14:22;;;;;;;32.50;12.60;;;23.70;57.90;;;;;;5096463;28;20529;-74
2022/03/23 12:16:51;;;;;;;28.02;12.43;;;23.80;57.10;;;;;;5096416;28;20130;-75
2022/03/23 12:19:18;;;;;;;20.55;11.60;;;23.80;57.60;;;;;;5113376;28;20044;-73
2022/03/23 12:21:59;;;;;;;25.13;9.88;;;23.70;55.90;;;;;;5095992;28;20039;-77
2022/03/23 12:24:52;;;;;;;28.05;9.93;;;23.90;55.60;;;;;;5116242;28;20536;-76
2022/03/23 12:27:34;;;;;;;24.23;8.55;;;24.40;55.20;;;;;;5113554;28;20050;-75
2022/03/23 12:30:05;;;;;;;30.02;9.15;;;24.40;53.30;;;;;;5113456;28;20379;-74
2022/03/23 12:32:38;;;;;;;24.08;8.70;;;24.60;53.60;;;;;;5113366;28;20047;-76
2022/03/23 12:35:05;;;;;;;24.05;9.70;;;24.60;53.90;;;;;;5113469;28;20047;-74
2022/03/23 12:37:39;;;;;;;23.88;9.05;;;24.00;52.10;;;;;;5096433;28;20052;-73
2022/03/23 12:40:14;;;;;;;25.30;10.45;;;23.90;52.70;;;;;;5113235;28;20067;-73
2022/03/23 12:42:46;;;;;;;22.77;10.02;;;24.10;53.00;;;;;;5113073;28;20083;-73
2022/03/23 12:45:16;;;;;;;24.27;10.10;;;24.40;51.30;;;;;;5115370;28;20048;-74
2022/03/23 12:47:59;;;;;;;29.13;9.95;;;24.40;50.20;;;;;;5117382;28;20062;-74
2022/03/23 12:59:23;;;;;;;19.30;9.05;;;25.10;50.60;;;;;;5117380;28;20093;-74
2022/03/23 13:02:17;;;;;;;26.17;9.48;;;25.50;51.20;;;;;;5116430;28;20494;-74
2022/03/23 13:04:43;;;;;;;21.95;9.73;;;25.60;49.10;;;;;;5117283;28;20047;-74
2022/03/23 13:07:27;;;;;;;24.67;9.77;;;26.00;48.00;;;;;;5117635;28;20039;-73
2022/03/23 13:10:11;;;;;;;19.65;9.50;;;26.10;48.30;;;;;;5118314;27;20044;-74